»·PEaware :: N228Q KHWQ-KJDN

N228Q :: KHWQ-KJDN

FLIGHT INFORMATION

Flight Status: Arrived
Operator: Privately registered:
United States
More flights under this callsign
Pilot: Chuck O. (4337)
Aircraft: BEECH AIRCRAFT BONANZA
(BE35)
More flights by this aircraft type
Origin: KHWQ Wheatland Co
United States
Destination: KJDN Jordan
United States
More flights between these airports :: More routes between these airports
Route: DIRECT
File this flight plan on PilotEdge
Remarks:
Altitude:
(Current/Filed)
9,500ft
Speed:
(Current/Filed)
160kts
Departed: 12-Oct-20 10:57 AM
Arrived: 12-Oct-20 11:44 AM
Distance/Time
Traveled:
130nm/0:46
Distance/Time
To Go:
Arrived

Flight Plot

Page will automatically refresh every two minutes.

Flight plan parsing failed; only flown route is shown


Map Options




Map Legend


Flown Route
Filed Route
Departure Airport
Arrival Airport
Navaid (VOR, NDB)
Fix

Horizontal Profiles

Position Reports

Time Latitude Longitude Heading Altitude Ground
Speed
12-Oct-20 10:51 46.447005 -109.855490 269 4293ft 0kts
12-Oct-20 10:52 46.447836 -109.855005 8 4293ft 14kts
12-Oct-20 10:53 46.448759 -109.853978 102 4293ft 13kts
12-Oct-20 10:54 46.447963 -109.846325 101 4293ft 12kts
12-Oct-20 10:55 46.447715 -109.845113 328 4293ft 4kts
12-Oct-20 10:56 46.449509 -109.865313 272 4599ft 79kts
12-Oct-20 10:57 46.466955 -109.861392 53 5638ft 132kts
12-Oct-20 10:58 46.482815 -109.811798 58 6609ft 139kts
12-Oct-20 10:59 46.499372 -109.759024 57 7427ft 153kts
12-Oct-20 11:00 46.519961 -109.693044 59 7460ft 195kts
12-Oct-20 11:01 46.542855 -109.619266 60 7450ft 202kts
12-Oct-20 11:02 46.565654 -109.545727 59 7447ft 199kts
12-Oct-20 11:03 46.588351 -109.472388 59 7449ft 198kts
12-Oct-20 11:04 46.610860 -109.399453 59 7452ft 197kts
12-Oct-20 11:05 46.633266 -109.326626 60 7449ft 195kts
12-Oct-20 11:06 46.655417 -109.254435 60 7442ft 195kts
12-Oct-20 11:07 46.677536 -109.182125 60 7443ft 195kts
12-Oct-20 11:08 46.699502 -109.110095 60 7440ft 195kts
12-Oct-20 11:09 46.721561 -109.037570 59 7446ft 195kts
12-Oct-20 11:10 46.743645 -108.964759 59 7449ft 197kts
12-Oct-20 11:11 46.765821 -108.891417 59 7446ft 197kts
12-Oct-20 11:12 46.787725 -108.818744 59 7443ft 194kts
12-Oct-20 11:13 46.809425 -108.746564 59 7454ft 193kts
12-Oct-20 11:14 46.831006 -108.674576 59 7466ft 193kts
12-Oct-20 11:15 46.852594 -108.602354 59 7468ft 194kts
12-Oct-20 11:16 46.874142 -108.530046 59 7460ft 194kts
12-Oct-20 11:17 46.895608 -108.457807 59 7453ft 194kts
12-Oct-20 11:18 46.917095 -108.385284 59 7446ft 194kts
12-Oct-20 11:19 46.938419 -108.313101 59 7440ft 194kts
12-Oct-20 11:20 46.959818 -108.240455 59 7429ft 194kts
12-Oct-20 11:21 46.981081 -108.168044 60 7416ft 193kts
12-Oct-20 11:22 47.002286 -108.095612 59 7421ft 192kts
12-Oct-20 11:23 47.023334 -108.023535 60 7410ft 193kts
12-Oct-20 11:24 47.044406 -107.951135 59 7398ft 192kts
12-Oct-20 11:25 47.063679 -107.876869 64 7202ft 202kts
12-Oct-20 11:26 47.083174 -107.796862 64 6519ft 213kts
12-Oct-20 11:27 47.103901 -107.712341 65 5138ft 220kts
12-Oct-20 11:28 47.122835 -107.634759 64 4869ft 186kts
12-Oct-20 11:29 47.140370 -107.565762 59 4871ft 175kts
12-Oct-20 11:30 47.160815 -107.501675 58 4973ft 168kts
12-Oct-20 11:31 47.180661 -107.437746 58 5002ft 174kts
12-Oct-20 11:32 47.200719 -107.372598 59 4996ft 175kts
12-Oct-20 11:33 47.221036 -107.306506 59 4765ft 187kts
12-Oct-20 11:34 47.242640 -107.235851 61 4269ft 189kts
12-Oct-20 11:35 47.263919 -107.166090 61 3898ft 180kts
12-Oct-20 11:36 47.283698 -107.101146 61 3884ft 170kts
12-Oct-20 11:37 47.302936 -107.037840 61 3878ft 168kts
12-Oct-20 11:38 47.314739 -106.977804 102 3817ft 135kts
12-Oct-20 11:39 47.301551 -106.927884 118 3925ft 134kts
12-Oct-20 11:40 47.302106 -106.889381 348 3831ft 101kts
12-Oct-20 11:41 47.316790 -106.916597 295 3117ft 82kts
12-Oct-20 11:42 47.325927 -106.943913 293 2710ft 65kts
12-Oct-20 11:43 47.327904 -106.950131 112 2669ft 12kts
12-Oct-20 11:44 47.326430 -106.947374 162 2669ft 3kts
12-Oct-20 11:45 47.326135 -106.947355 292 2669ft 0kts
12-Oct-20 11:46 47.326135 -106.947355 292 2669ft 0kts
12-Oct-20 11:47 47.326135 -106.947355 292 2669ft 0kts
12-Oct-20 11:48 47.326135 -106.947355 292 2669ft 0kts

Navigation Log

Ident Type
Flight plan parsing failed, navigation log unavailable